KHTO

East Hampton Airport

East Hampton, New York, USA
METAR KHTO 201555Z AUTO 03008KT 10SM OVC016 22/18 A3014 RMK AO2 T02170176
Observed Flight Rules
Aug-20 @ 15:55 UTC (30 minutes ago) Marginal Visual Flight Rules
Wind Visibility Clouds
30° at 8 knots 10 miles
  • Overcast at 1,600' AGL
Temperatures Readings
Current 22°C / 72°F
Dewpoint 18°C / 64°F
Humidity 78%
Altimeter 30.14" Hg
Pressure 1021 hPa
Elevation 17
METAR KHTO 201555Z AUTO 03008KT 10SM OVC016 22/18 A3014 RMK AO2 T02170176
Observed Flight Rules
Aug-20 @ 15:55 UTC
(30 minutes ago)
MVFR
Wind Visibility
30° at 8 knots 10 miles
Clouds
  • Overcast at 1,600' AGL
Temperature Dewpoint
22°C / 72°F 18°C / 64°F
Humidity Altimeter Pressure
78% 30.14" Hg 1021 hPa